sensor_id;sensor_type;location;lat;lon;timestamp;pressure;altitude;pressure_sealevel;temperature;humidity
41513;BME280;27244;59.940;30.280;2023-06-22T00:00:49;101330.03;;;24.49;46.95
41513;BME280;27244;59.940;30.280;2023-06-22T00:03:17;101324.41;;;24.49;47.04
41513;BME280;27244;59.940;30.280;2023-06-22T00:05:44;101320.00;;;24.48;47.23
41513;BME280;27244;59.940;30.280;2023-06-22T00:08:12;101321.56;;;24.49;46.80
41513;BME280;27244;59.940;30.280;2023-06-22T00:10:40;101317.19;;;24.48;46.88
41513;BME280;27244;59.940;30.280;2023-06-22T00:13:08;101310.75;;;24.47;46.84
41513;BME280;27244;59.940;30.280;2023-06-22T00:15:37;101310.28;;;24.49;46.94
41513;BME280;27244;59.940;30.280;2023-06-22T00:18:06;101307.84;;;24.51;46.82
41513;BME280;27244;59.940;30.280;2023-06-22T00:20:33;101290.28;;;24.43;46.86
41513;BME280;27244;59.940;30.280;2023-06-22T00:23:04;101301.81;;;24.49;47.16
41513;BME280;27244;59.940;30.280;2023-06-22T00:25:34;101303.31;;;24.73;46.20
41513;BME280;27244;59.940;30.280;2023-06-22T00:28:03;101290.94;;;24.51;46.58
41513;BME280;27244;59.940;30.280;2023-06-22T00:30:30;101292.59;;;24.48;46.81
41513;BME280;27244;59.940;30.280;2023-06-22T00:32:58;101288.59;;;24.46;46.97
41513;BME280;27244;59.940;30.280;2023-06-22T00:35:25;101281.03;;;24.43;46.90
41513;BME280;27244;59.940;30.280;2023-06-22T00:37:54;101290.22;;;24.47;46.89
41513;BME280;27244;59.940;30.280;2023-06-22T00:40:26;101289.78;;;24.48;46.58
41513;BME280;27244;59.940;30.280;2023-06-22T00:42:54;101279.09;;;24.40;46.59
41513;BME280;27244;59.940;30.280;2023-06-22T00:45:22;101270.34;;;24.34;46.65
41513;BME280;27244;59.940;30.280;2023-06-22T00:47:50;101286.97;;;24.48;46.36
41513;BME280;27244;59.940;30.280;2023-06-22T00:50:20;101286.16;;;24.48;46.67
41513;BME280;27244;59.940;30.280;2023-06-22T00:52:51;101290.13;;;24.50;46.73
41513;BME280;27244;59.940;30.280;2023-06-22T00:55:19;101280.53;;;24.48;46.87
41513;BME280;27244;59.940;30.280;2023-06-22T00:57:47;101274.88;;;24.48;46.80
41513;BME280;27244;59.940;30.280;2023-06-22T01:00:15;101275.75;;;24.45;46.71
41513;BME280;27244;59.940;30.280;2023-06-22T01:02:47;101278.03;;;24.50;46.84
41513;BME280;27244;59.940;30.280;2023-06-22T01:05:18;101273.28;;;24.47;46.76
41513;BME280;27244;59.940;30.280;2023-06-22T01:07:54;101273.13;;;24.54;46.28
41513;BME280;27244;59.940;30.280;2023-06-22T01:10:27;101268.78;;;24.49;46.27
41513;BME280;27244;59.940;30.280;2023-06-22T01:13:00;101261.50;;;24.52;46.22
41513;BME280;27244;59.940;30.280;2023-06-22T01:15:31;101263.53;;;24.52;46.43
41513;BME280;27244;59.940;30.280;2023-06-22T01:18:03;101261.50;;;24.52;46.42
41513;BME280;27244;59.940;30.280;2023-06-22T01:20:32;101258.31;;;24.50;46.34
41513;BME280;27244;59.940;30.280;2023-06-22T01:23:10;101259.03;;;24.54;46.09
41513;BME280;27244;59.940;30.280;2023-06-22T01:25:46;101262.63;;;24.55;46.06
41513;BME280;27244;59.940;30.280;2023-06-22T01:28:33;101260.25;;;24.53;46.14
41513;BME280;27244;59.940;30.280;2023-06-22T01:31:02;101256.38;;;24.47;46.17
41513;BME280;27244;59.940;30.280;2023-06-22T01:33:33;101259.09;;;24.50;46.38
41513;BME280;27244;59.940;30.280;2023-06-22T01:36:01;101261.19;;;24.46;46.27
41513;BME280;27244;59.940;30.280;2023-06-22T01:38:29;101245.25;;;24.40;46.26
41513;BME280;27244;59.940;30.280;2023-06-22T01:40:57;101258.84;;;24.45;46.45
41513;BME280;27244;59.940;30.280;2023-06-22T01:43:25;101253.97;;;24.45;46.52
41513;BME280;27244;59.940;30.280;2023-06-22T01:45:56;101250.28;;;24.48;45.98
41513;BME280;27244;59.940;30.280;2023-06-22T01:48:24;101243.47;;;24.46;46.13
41513;BME280;27244;59.940;30.280;2023-06-22T01:50:52;101240.31;;;24.44;46.35
41513;BME280;27244;59.940;30.280;2023-06-22T01:53:21;101241.47;;;24.46;46.07
41513;BME280;27244;59.940;30.280;2023-06-22T01:55:50;101243.47;;;24.46;46.34
41513;BME280;27244;59.940;30.280;2023-06-22T01:58:20;101244.66;;;24.48;46.04
41513;BME280;27244;59.940;30.280;2023-06-22T02:00:52;101240.25;;;24.47;46.02
41513;BME280;27244;59.940;30.280;2023-06-22T02:03:23;101236.97;;;24.49;46.04
41513;BME280;27244;59.940;30.280;2023-06-22T02:05:58;101237.75;;;24.49;45.84
41513;BME280;27244;59.940;30.280;2023-06-22T02:08:30;101235.75;;;24.50;45.99
41513;BME280;27244;59.940;30.280;2023-06-22T02:10:59;101234.59;;;24.47;45.85
41513;BME280;27244;59.940;30.280;2023-06-22T02:13:29;101233.00;;;24.46;46.31
41513;BME280;27244;59.940;30.280;2023-06-22T02:15:56;101229.91;;;24.41;45.95
41513;BME280;27244;59.940;30.280;2023-06-22T02:18:25;101237.84;;;24.46;45.91
41513;BME280;27244;59.940;30.280;2023-06-22T02:20:52;101233.09;;;24.43;46.05
41513;BME280;27244;59.940;30.280;2023-06-22T02:23:19;101239.09;;;24.45;45.91
41513;BME280;27244;59.940;30.280;2023-06-22T02:25:46;101231.50;;;24.42;46.15
41513;BME280;27244;59.940;30.280;2023-06-22T02:28:13;101228.59;;;24.45;46.13
41513;BME280;27244;59.940;30.280;2023-06-22T02:30:40;101225.75;;;24.45;45.88
41513;BME280;27244;59.940;30.280;2023-06-22T02:33:07;101223.41;;;24.44;45.88
41513;BME280;27244;59.940;30.280;2023-06-22T02:35:35;101232.22;;;24.46;46.03
41513;BME280;27244;59.940;30.280;2023-06-22T02:38:03;101227.81;;;24.45;46.11
41513;BME280;27244;59.940;30.280;2023-06-22T02:40:31;101220.13;;;24.45;46.14
41513;BME280;27244;59.940;30.280;2023-06-22T02:42:58;101229.47;;;24.42;45.83
41513;BME280;27244;59.940;30.280;2023-06-22T02:45:28;101227.81;;;24.45;46.05
41513;BME280;27244;59.940;30.280;2023-06-22T02:47:55;101229.03;;;24.44;46.05
41513;BME280;27244;59.940;30.280;2023-06-22T02:50:23;101220.59;;;24.44;45.96
41513;BME280;27244;59.940;30.280;2023-06-22T02:52:52;101206.09;;;24.42;46.23
41513;BME280;27244;59.940;30.280;2023-06-22T02:55:19;101211.75;;;24.42;46.27
41513;BME280;27244;59.940;30.280;2023-06-22T02:57:53;101214.22;;;24.40;46.05
41513;BME280;27244;59.940;30.280;2023-06-22T03:00:20;101210.59;;;24.39;46.27
41513;BME280;27244;59.940;30.280;2023-06-22T03:02:48;101214.94;;;24.44;46.37
41513;BME280;27244;59.940;30.280;2023-06-22T03:05:16;101212.91;;;24.44;46.13
41513;BME280;27244;59.940;30.280;2023-06-22T03:07:44;101211.31;;;24.43;46.27
41513;BME280;27244;59.940;30.280;2023-06-22T03:10:13;101211.25;;;24.47;46.35
41513;BME280;27244;59.940;30.280;2023-06-22T03:12:42;101218.56;;;24.44;46.52
41513;BME280;27244;59.940;30.280;2023-06-22T03:15:10;101213.72;;;24.45;46.27
41513;BME280;27244;59.940;30.280;2023-06-22T03:17:38;101214.22;;;24.40;46.62
41513;BME280;27244;59.940;30.280;2023-06-22T03:20:08;101215.38;;;24.42;46.32
41513;BME280;27244;59.940;30.280;2023-06-22T03:22:38;101205.69;;;24.43;46.34
41513;BME280;27244;59.940;30.280;2023-06-22T03:25:06;101210.91;;;24.45;46.57
41513;BME280;27244;59.940;30.280;2023-06-22T03:27:41;101221.38;;;24.44;46.38
41513;BME280;27244;59.940;30.280;2023-06-22T03:30:11;101217.31;;;24.45;46.49
41513;BME280;27244;59.940;30.280;2023-06-22T03:32:39;101217.31;;;24.45;46.69
41513;BME280;27244;59.940;30.280;2023-06-22T03:35:06;101217.38;;;24.42;46.62
41513;BME280;27244;59.940;30.280;2023-06-22T03:37:36;101225.75;;;24.45;46.50
41513;BME280;27244;59.940;30.280;2023-06-22T03:40:03;101233.00;;;24.46;46.40
41513;BME280;27244;59.940;30.280;2023-06-22T03:42:33;101228.16;;;24.47;46.46
41513;BME280;27244;59.940;30.280;2023-06-22T03:45:03;101217.69;;;24.47;46.29
41513;BME280;27244;59.940;30.280;2023-06-22T03:47:32;101210.91;;;24.45;46.45
41513;BME280;27244;59.940;30.280;2023-06-22T03:49:59;101209.31;;;24.44;46.58
41513;BME280;27244;59.940;30.280;2023-06-22T03:52:29;101204.53;;;24.41;46.41
41513;BME280;27244;59.940;30.280;2023-06-22T03:54:56;101206.81;;;24.46;46.62
41513;BME280;27244;59.940;30.280;2023-06-22T03:57:23;101206.81;;;24.46;46.60
41513;BME280;27244;59.940;30.280;2023-06-22T03:59:50;101213.25;;;24.46;46.44
41513;BME280;27244;59.940;30.280;2023-06-22T04:02:18;101209.22;;;24.47;46.38
41513;BME280;27244;59.940;30.280;2023-06-22T04:04:45;101207.63;;;24.46;46.33
41513;BME280;27244;59.940;30.280;2023-06-22T04:07:12;101206.81;;;24.46;46.53
41513;BME280;27244;59.940;30.280;2023-06-22T04:09:39;101196.78;;;24.45;46.76
41513;BME280;27244;59.940;30.280;2023-06-22T04:12:07;101197.56;;;24.45;46.37
41513;BME280;27244;59.940;30.280;2023-06-22T04:14:34;101203.22;;;24.45;46.46
41513;BME280;27244;59.940;30.280;2023-06-22T04:17:01;101179.41;;;24.30;46.61
41513;BME280;27244;59.940;30.280;2023-06-22T04:19:29;101187.72;;;24.37;46.37
41513;BME280;27244;59.940;30.280;2023-06-22T04:21:56;101196.78;;;24.45;46.30
41513;BME280;27244;59.940;30.280;2023-06-22T04:24:23;101195.53;;;24.46;46.43
41513;BME280;27244;59.940;30.280;2023-06-22T04:26:50;101190.44;;;24.41;46.53
41513;BME280;27244;59.940;30.280;2023-06-22T04:29:21;101189.91;;;24.46;46.47
41513;BME280;27244;59.940;30.280;2023-06-22T04:31:55;101195.53;;;24.46;46.43
41513;BME280;27244;59.940;30.280;2023-06-22T04:34:24;101169.78;;;24.28;46.38
41513;BME280;27244;59.940;30.280;2023-06-22T04:36:54;101193.53;;;24.46;46.71
41513;BME280;27244;59.940;30.280;2023-06-22T04:39:21;101187.97;;;24.43;46.58
41513;BME280;27244;59.940;30.280;2023-06-22T04:41:49;101187.97;;;24.43;46.32
41513;BME280;27244;59.940;30.280;2023-06-22T04:44:18;101198.38;;;24.46;46.63
41513;BME280;27244;59.940;30.280;2023-06-22T04:46:49;101191.94;;;24.45;46.56
41513;BME280;27244;59.940;30.280;2023-06-22T04:49:20;101197.94;;;24.47;46.43
41513;BME280;27244;59.940;30.280;2023-06-22T04:51:50;101191.50;;;24.47;46.62
41513;BME280;27244;59.940;30.280;2023-06-22T04:54:18;101181.81;;;24.48;46.44
41513;BME280;27244;59.940;30.280;2023-06-22T04:56:45;101169.09;;;24.40;46.44
41513;BME280;27244;59.940;30.280;2023-06-22T04:59:14;101180.66;;;24.45;46.49
41513;BME280;27244;59.940;30.280;2023-06-22T05:01:44;101174.91;;;24.49;46.52
41513;BME280;27244;59.940;30.280;2023-06-22T05:04:11;101163.81;;;24.42;46.55
41513;BME280;27244;59.940;30.280;2023-06-22T05:06:38;101159.75;;;24.43;46.40
41513;BME280;27244;59.940;30.280;2023-06-22T05:09:05;101168.13;;;24.46;46.51
41513;BME280;27244;59.940;30.280;2023-06-22T05:11:34;101165.69;;;24.48;46.51
41513;BME280;27244;59.940;30.280;2023-06-22T05:14:01;101166.13;;;24.47;46.68
41513;BME280;27244;59.940;30.280;2023-06-22T05:16:28;101167.72;;;24.48;46.64
41513;BME280;27244;59.940;30.280;2023-06-22T05:18:55;101158.00;;;24.49;46.70
41513;BME280;27244;59.940;30.280;2023-06-22T05:21:23;101148.41;;;24.46;46.71
41513;BME280;27244;59.940;30.280;2023-06-22T05:23:50;101149.19;;;24.47;46.76
41513;BME280;27244;59.940;30.280;2023-06-22T05:26:17;101152.03;;;24.47;46.68
41513;BME280;27244;59.940;30.280;2023-06-22T05:28:46;101141.97;;;24.46;46.73
41513;BME280;27244;59.940;30.280;2023-06-22T05:31:13;101150.78;;;24.48;46.69
41513;BME280;27244;59.940;30.280;2023-06-22T05:33:40;101154.41;;;24.48;46.96
41513;BME280;27244;59.940;30.280;2023-06-22T05:36:08;101143.13;;;24.48;46.82
41513;BME280;27244;59.940;30.280;2023-06-22T05:38:35;101139.84;;;24.50;47.09
41513;BME280;27244;59.940;30.280;2023-06-22T05:41:03;101126.09;;;24.36;47.20
41513;BME280;27244;59.940;30.280;2023-06-22T05:43:30;101130.16;;;24.51;46.91
41513;BME280;27244;59.940;30.280;2023-06-22T05:45:59;101134.56;;;24.52;47.02
41513;BME280;27244;59.940;30.280;2023-06-22T05:48:26;101125.75;;;24.50;47.10
41513;BME280;27244;59.940;30.280;2023-06-22T05:50:54;101120.56;;;24.48;47.39
41513;BME280;27244;59.940;30.280;2023-06-22T05:53:21;101130.16;;;24.51;47.22
41513;BME280;27244;59.940;30.280;2023-06-22T05:55:48;101127.34;;;24.51;47.27
41513;BME280;27244;59.940;30.280;2023-06-22T05:58:15;101115.25;;;24.50;47.31
41513;BME280;27244;59.940;30.280;2023-06-22T06:00:42;101119.69;;;24.52;48.05
41513;BME280;27244;59.940;30.280;2023-06-22T06:03:11;101123.63;;;24.54;48.03
41513;BME280;27244;59.940;30.280;2023-06-22T06:05:37;101115.19;;;24.54;48.34
41513;BME280;27244;59.940;30.280;2023-06-22T06:08:06;101105.66;;;24.48;47.83
41513;BME280;27244;59.940;30.280;2023-06-22T06:10:34;101117.19;;;24.54;47.89
41513;BME280;27244;59.940;30.280;2023-06-22T06:13:02;101114.38;;;24.54;48.04
41513;BME280;27244;59.940;30.280;2023-06-22T06:15:30;101102.28;;;24.53;48.15
41513;BME280;27244;59.940;30.280;2023-06-22T06:17:57;101091.03;;;24.53;48.73
41513;BME280;27244;59.940;30.280;2023-06-22T06:20:26;101092.19;;;24.56;48.46
41513;BME280;27244;59.940;30.280;2023-06-22T06:22:54;101082.56;;;24.53;48.94
41513;BME280;27244;59.940;30.280;2023-06-22T06:25:22;101090.59;;;24.55;48.70
41513;BME280;27244;59.940;30.280;2023-06-22T06:27:50;101094.22;;;24.55;48.67
41513;BME280;27244;59.940;30.280;2023-06-22T06:30:20;101090.16;;;24.56;48.84
41513;BME280;27244;59.940;30.280;2023-06-22T06:32:47;101088.09;;;24.57;48.86
41513;BME280;27244;59.940;30.280;2023-06-22T06:35:14;101075.69;;;24.54;48.76
41513;BME280;27244;59.940;30.280;2023-06-22T06:37:44;101080.44;;;24.57;48.32
41513;BME280;27244;59.940;30.280;2023-06-22T06:40:12;101081.25;;;24.58;48.74
41513;BME280;27244;59.940;30.280;2023-06-22T06:42:41;101069.63;;;24.56;49.04
41513;BME280;27244;59.940;30.280;2023-06-22T06:45:10;101066.44;;;24.54;49.02
41513;BME280;27244;59.940;30.280;2023-06-22T06:47:37;101059.56;;;24.55;48.77
41513;BME280;27244;59.940;30.280;2023-06-22T06:50:05;101070.41;;;24.56;48.73
41513;BME280;27244;59.940;30.280;2023-06-22T06:52:33;101059.91;;;24.57;48.98
41513;BME280;27244;59.940;30.280;2023-06-22T06:55:01;101074.72;;;24.61;48.54
41513;BME280;27244;59.940;30.280;2023-06-22T06:57:30;101065.09;;;24.58;49.37
41513;BME280;27244;59.940;30.280;2023-06-22T06:59:57;101061.06;;;24.59;49.52
41513;BME280;27244;59.940;30.280;2023-06-22T07:02:25;101069.88;;;24.61;49.66
41513;BME280;27244;59.940;30.280;2023-06-22T07:04:53;101063.09;;;24.59;49.64
41513;BME280;27244;59.940;30.280;2023-06-22T07:07:21;101056.56;;;24.62;49.61
41513;BME280;27244;59.940;30.280;2023-06-22T07:09:48;101057.78;;;24.61;49.74
41513;BME280;27244;59.940;30.280;2023-06-22T07:12:17;101058.94;;;24.63;49.42
41513;BME280;27244;59.940;30.280;2023-06-22T07:14:44;101048.19;;;24.58;49.81
41513;BME280;27244;59.940;30.280;2023-06-22T07:17:11;101037.69;;;24.59;49.85
41513;BME280;27244;59.940;30.280;2023-06-22T07:19:38;101047.66;;;24.63;49.69
41513;BME280;27244;59.940;30.280;2023-06-22T07:22:05;101030.03;;;24.59;49.75
41513;BME280;27244;59.940;30.280;2023-06-22T07:24:32;101039.53;;;24.65;50.01
41513;BME280;27244;59.940;30.280;2023-06-22T07:26:59;101039.09;;;24.67;49.45
41513;BME280;27244;59.940;30.280;2023-06-22T07:29:29;101044.66;;;24.70;50.17
41513;BME280;27244;59.940;30.280;2023-06-22T07:31:57;101033.09;;;24.65;50.13
41513;BME280;27244;59.940;30.280;2023-06-22T07:34:26;101033.00;;;24.68;49.40
41513;BME280;27244;59.940;30.280;2023-06-22T07:36:53;101018.66;;;24.63;49.47
41513;BME280;27244;59.940;30.280;2023-06-22T07:39:20;101021.72;;;24.68;50.04
41513;BME280;27244;59.940;30.280;2023-06-22T07:41:51;101016.06;;;24.68;50.34
41513;BME280;27244;59.940;30.280;2023-06-22T07:44:18;101011.31;;;24.65;49.99
41513;BME280;27244;59.940;30.280;2023-06-22T07:46:46;101023.66;;;24.71;50.20
41513;BME280;27244;59.940;30.280;2023-06-22T07:49:13;101013.44;;;24.61;49.89
41513;BME280;27244;59.940;30.280;2023-06-22T07:51:40;101023.66;;;24.71;50.40
41513;BME280;27244;59.940;30.280;2023-06-22T07:54:09;101023.66;;;24.71;50.14
41513;BME280;27244;59.940;30.280;2023-06-22T07:56:36;101018.00;;;24.71;50.26
41513;BME280;27244;59.940;30.280;2023-06-22T07:59:04;101005.25;;;24.67;50.25
41513;BME280;27244;59.940;30.280;2023-06-22T08:01:31;101012.34;;;24.71;50.26
41513;BME280;27244;59.940;30.280;2023-06-22T08:03:59;101017.56;;;24.73;50.55
41513;BME280;27244;59.940;30.280;2023-06-22T08:06:26;101005.16;;;24.70;50.44
41513;BME280;27244;59.940;30.280;2023-06-22T08:08:53;101001.06;;;24.71;50.54
41513;BME280;27244;59.940;30.280;2023-06-22T08:11:22;101008.31;;;24.72;50.42
41513;BME280;27244;59.940;30.280;2023-06-22T08:13:51;100991.38;;;24.72;50.21
41513;BME280;27244;59.940;30.280;2023-06-22T08:16:18;100989.78;;;24.71;50.55
41513;BME280;27244;59.940;30.280;2023-06-22T08:18:45;100992.19;;;24.73;50.33
41513;BME280;27244;59.940;30.280;2023-06-22T08:21:13;100990.94;;;24.74;50.57
41513;BME280;27244;59.940;30.280;2023-06-22T08:23:40;100987.34;;;24.73;50.35
41513;BME280;27244;59.940;30.280;2023-06-22T08:26:07;100989.34;;;24.73;50.42
41513;BME280;27244;59.940;30.280;2023-06-22T08:28:34;100973.31;;;24.70;50.69
41513;BME280;27244;59.940;30.280;2023-06-22T08:31:02;100965.66;;;24.70;50.56
41513;BME280;27244;59.940;30.280;2023-06-22T08:33:29;100972.75;;;24.75;49.81
41513;BME280;27244;59.940;30.280;2023-06-22T08:35:58;100962.94;;;24.67;50.15
41513;BME280;27244;59.940;30.280;2023-06-22T08:38:26;100971.53;;;24.76;50.58
41513;BME280;27244;59.940;30.280;2023-06-22T08:40:54;100968.38;;;24.74;50.37
41513;BME280;27244;59.940;30.280;2023-06-22T08:43:24;100968.28;;;24.77;48.72
41513;BME280;27244;59.940;30.280;2023-06-22T08:45:51;100959.22;;;24.70;50.15
41513;BME280;27244;59.940;30.280;2023-06-22T08:48:18;100960.72;;;24.74;49.95
41513;BME280;27244;59.940;30.280;2023-06-22T08:50:45;100961.47;;;24.75;49.93
41513;BME280;27244;59.940;30.280;2023-06-22T08:53:12;100960.72;;;24.74;50.07
41513;BME280;27244;59.940;30.280;2023-06-22T08:55:41;100949.44;;;24.74;49.30
41513;BME280;27244;59.940;30.280;2023-06-22T08:58:08;100952.00;;;24.69;49.61
41513;BME280;27244;59.940;30.280;2023-06-22T09:00:35;100950.28;;;24.71;50.04
41513;BME280;27244;59.940;30.280;2023-06-22T09:03:03;100956.63;;;24.75;49.94
41513;BME280;27244;59.940;30.280;2023-06-22T09:05:30;100943.84;;;24.71;49.58
41513;BME280;27244;59.940;30.280;2023-06-22T09:07:57;100952.25;;;24.74;49.63
41513;BME280;27244;59.940;30.280;2023-06-22T09:10:25;100944.22;;;24.73;48.95
41513;BME280;27244;59.940;30.280;2023-06-22T09:12:53;100951.00;;;24.75;49.52
41513;BME280;27244;59.940;30.280;2023-06-22T09:15:21;100951.00;;;24.75;49.53
41513;BME280;27244;59.940;30.280;2023-06-22T09:17:48;100939.38;;;24.73;49.80
41513;BME280;27244;59.940;30.280;2023-06-22T09:20:15;100938.13;;;24.74;49.69
41513;BME280;27244;59.940;30.280;2023-06-22T09:22:42;100944.53;;;24.75;48.82
41513;BME280;27244;59.940;30.280;2023-06-22T09:25:09;100935.31;;;24.74;49.23
41513;BME280;27244;59.940;30.280;2023-06-22T09:27:36;100940.97;;;24.74;48.51
41513;BME280;27244;59.940;30.280;2023-06-22T09:30:06;100938.91;;;24.75;47.38
41513;BME280;27244;59.940;30.280;2023-06-22T09:32:33;100943.41;;;24.72;48.07
41513;BME280;27244;59.940;30.280;2023-06-22T09:35:03;100944.13;;;24.76;48.74
41513;BME280;27244;59.940;30.280;2023-06-22T09:37:32;100935.31;;;24.74;48.45
41513;BME280;27244;59.940;30.280;2023-06-22T09:39:59;100922.44;;;24.73;47.75
41513;BME280;27244;59.940;30.280;2023-06-22T09:42:25;100920.41;;;24.74;48.69
41513;BME280;27244;59.940;30.280;2023-06-22T09:44:52;100923.25;;;24.74;49.02
41513;BME280;27244;59.940;30.280;2023-06-22T09:47:21;100913.19;;;24.73;47.67
41513;BME280;27244;59.940;30.280;2023-06-22T09:49:48;100910.81;;;24.71;48.54
41513;BME280;27244;59.940;30.280;2023-06-22T09:52:15;100907.88;;;24.75;48.89
41513;BME280;27244;59.940;30.280;2023-06-22T09:54:43;100902.34;;;24.71;49.00
41513;BME280;27244;59.940;30.280;2023-06-22T09:57:12;100898.66;;;24.74;47.85
41513;BME280;27244;59.940;30.280;2023-06-22T09:59:39;100887.78;;;24.73;48.39
41513;BME280;27244;59.940;30.280;2023-06-22T10:02:06;100891.84;;;24.72;48.50
41513;BME280;27244;59.940;30.280;2023-06-22T10:04:35;100879.34;;;24.73;48.77
41513;BME280;27244;59.940;30.280;2023-06-22T10:07:02;100881.34;;;24.72;49.05
41513;BME280;27244;59.940;30.280;2023-06-22T10:09:29;100880.13;;;24.73;47.61
41513;BME280;27244;59.940;30.280;2023-06-22T10:11:56;100884.97;;;24.73;49.21
41513;BME280;27244;59.940;30.280;2023-06-22T10:14:23;100875.72;;;24.72;49.03
41513;BME280;27244;59.940;30.280;2023-06-22T10:16:52;100875.28;;;24.74;49.24
41513;BME280;27244;59.940;30.280;2023-06-22T10:19:19;100859.22;;;24.71;49.43
41513;BME280;27244;59.940;30.280;2023-06-22T10:21:47;100861.63;;;24.72;49.10
41513;BME280;27244;59.940;30.280;2023-06-22T10:24:14;100854.84;;;24.70;49.51
41513;BME280;27244;59.940;30.280;2023-06-22T10:26:41;100847.63;;;24.69;49.42
41513;BME280;27244;59.940;30.280;2023-06-22T10:29:08;100847.94;;;24.71;49.38
41513;BME280;27244;59.940;30.280;2023-06-22T10:31:35;100851.91;;;24.73;49.21
41513;BME280;27244;59.940;30.280;2023-06-22T10:34:02;100842.22;;;24.74;48.87
41513;BME280;27244;59.940;30.280;2023-06-22T10:36:29;100842.22;;;24.74;49.41
41513;BME280;27244;59.940;30.280;2023-06-22T10:38:57;100846.59;;;24.75;49.12
41513;BME280;27244;59.940;30.280;2023-06-22T10:41:27;100858.69;;;24.76;49.52
41513;BME280;27244;59.940;30.280;2023-06-22T10:43:55;100874.03;;;24.75;49.71
41513;BME280;27244;59.940;30.280;2023-06-22T10:46:24;100894.56;;;24.75;49.30
41513;BME280;27244;59.940;30.280;2023-06-22T10:48:51;100901.00;;;24.76;49.67
41513;BME280;27244;59.940;30.280;2023-06-22T10:51:20;100880.56;;;24.72;48.49
41513;BME280;27244;59.940;30.280;2023-06-22T10:53:58;100864.31;;;24.76;49.52
41513;BME280;27244;59.940;30.280;2023-06-22T10:56:27;100828.63;;;24.57;49.38
41513;BME280;27244;59.940;30.280;2023-06-22T10:58:57;100845.38;;;24.76;49.39
41513;BME280;27244;59.940;30.280;2023-06-22T11:01:24;100836.22;;;24.72;48.95
41513;BME280;27244;59.940;30.280;2023-06-22T11:03:51;100841.75;;;24.76;48.94
41513;BME280;27244;59.940;30.280;2023-06-22T11:06:18;100817.03;;;24.67;48.98
41513;BME280;27244;59.940;30.280;2023-06-22T11:08:46;100825.72;;;24.73;49.61
41513;BME280;27244;59.940;30.280;2023-06-22T11:11:15;100829.13;;;24.80;49.41
41513;BME280;27244;59.940;30.280;2023-06-22T11:13:43;100823.59;;;24.77;49.94
41513;BME280;27244;59.940;30.280;2023-06-22T11:16:12;100815.69;;;24.72;49.30
41513;BME280;27244;59.940;30.280;2023-06-22T11:18:39;100821.69;;;24.74;49.45
41513;BME280;27244;59.940;30.280;2023-06-22T11:21:12;100809.72;;;24.70;50.05
41513;BME280;27244;59.940;30.280;2023-06-22T11:24:00;100797.28;;;24.67;49.45
41513;BME280;27244;59.940;30.280;2023-06-22T11:26:31;100824.38;;;24.77;49.84
41513;BME280;27244;59.940;30.280;2023-06-22T11:29:21;100829.13;;;24.80;49.81
41513;BME280;27244;59.940;30.280;2023-06-22T11:31:48;100832.38;;;24.79;49.47
41513;BME280;27244;59.940;30.280;2023-06-22T11:34:15;100811.63;;;24.73;49.74
41513;BME280;27244;59.940;30.280;2023-06-22T11:36:42;100816.72;;;24.78;49.69
41513;BME280;27244;59.940;30.280;2023-06-22T11:39:09;100819.53;;;24.78;50.03
41513;BME280;27244;59.940;30.280;2023-06-22T11:41:38;100801.25;;;24.70;50.05
41513;BME280;27244;59.940;30.280;2023-06-22T11:44:05;100813.53;;;24.76;50.00
41513;BME280;27244;59.940;30.280;2023-06-22T11:46:33;100807.47;;;24.77;49.84
41513;BME280;27244;59.940;30.280;2023-06-22T11:49:00;100795.25;;;24.68;50.05
41513;BME280;27244;59.940;30.280;2023-06-22T11:51:27;100808.25;;;24.78;49.79
41513;BME280;27244;59.940;30.280;2023-06-22T11:54:56;100803.88;;;24.89;49.26
41513;BME280;27244;59.940;30.280;2023-06-22T11:57:35;100799.47;;;24.88;49.71
41513;BME280;27244;59.940;30.280;2023-06-22T12:00:06;100801.34;;;24.79;49.90
41513;BME280;27244;59.940;30.280;2023-06-22T12:02:44;100766.47;;;24.60;50.02
41513;BME280;27244;59.940;30.280;2023-06-22T12:05:11;100767.94;;;24.65;50.08
41513;BME280;27244;59.940;30.280;2023-06-22T12:07:39;100787.03;;;24.73;50.06
41513;BME280;27244;59.940;30.280;2023-06-22T12:10:07;100769.06;;;24.67;50.57
41513;BME280;27244;59.940;30.280;2023-06-22T12:12:35;100782.50;;;24.76;51.00
41513;BME280;27244;59.940;30.280;2023-06-22T12:15:03;100757.25;;;24.60;50.66
41513;BME280;27244;59.940;30.280;2023-06-22T12:17:31;100751.13;;;24.61;51.19
41513;BME280;27244;59.940;30.280;2023-06-22T12:19:58;100753.97;;;24.61;50.97
41513;BME280;27244;59.940;30.280;2023-06-22T12:22:27;100755.53;;;24.62;51.24
41513;BME280;27244;59.940;30.280;2023-06-22T12:24:55;100763.44;;;24.67;51.02
41513;BME280;27244;59.940;30.280;2023-06-22T12:27:22;100753.06;;;24.64;50.19
41513;BME280;27244;59.940;30.280;2023-06-22T12:29:57;100764.34;;;24.77;50.88
41513;BME280;27244;59.940;30.280;2023-06-22T12:32:42;100778.00;;;24.78;51.16
41513;BME280;27244;59.940;30.280;2023-06-22T12:35:32;100762.19;;;24.68;50.62
41513;BME280;27244;59.940;30.280;2023-06-22T12:38:15;100773.75;;;24.86;50.31
41513;BME280;27244;59.940;30.280;2023-06-22T12:40:55;100756.34;;;24.63;50.40
41513;BME280;27244;59.940;30.280;2023-06-22T12:54:15;100758.25;;;24.78;50.55
41513;BME280;27244;59.940;30.280;2023-06-22T13:14:28;100824.19;;;24.97;49.66
41513;BME280;27244;59.940;30.280;2023-06-22T13:16:55;100799.19;;;24.58;49.91